createdAt,value
2019-06-08T00:01:35.785Z,30.47
2019-06-08T00:04:08.886Z,30.00
2019-06-08T00:06:42.944Z,30.67
2019-06-08T00:09:21.932Z,29.95
2019-06-08T00:11:56.998Z,30.17
2019-06-08T00:14:35.039Z,30.03
2019-06-08T00:17:08.462Z,31.67
2019-06-08T00:19:42.482Z,30.67
2019-06-08T00:22:19.781Z,31.33
2019-06-08T00:24:54.047Z,30.77
2019-06-08T00:27:27.523Z,29.93
2019-06-08T00:30:01.538Z,31.23
2019-06-08T00:32:35.891Z,30.67
2019-06-08T00:35:10.172Z,29.53
2019-06-08T00:37:44.002Z,31.97
2019-06-08T00:40:19.051Z,30.82
2019-06-08T00:42:52.104Z,33.17
2019-06-08T00:45:27.007Z,33.60
2019-06-08T00:47:59.680Z,31.87
2019-06-08T00:50:32.357Z,33.03
2019-06-08T00:53:08.815Z,33.50
2019-06-08T00:55:40.626Z,32.87
2019-06-08T00:58:13.197Z,33.53
2019-06-08T01:00:49.053Z,33.37
2019-06-08T01:03:21.646Z,34.40
2019-06-08T01:05:55.471Z,32.07
2019-06-08T01:08:32.790Z,33.97
2019-06-08T01:11:05.713Z,34.03
2019-06-08T01:13:39.103Z,32.80
2019-06-08T01:16:14.696Z,32.38
2019-06-08T01:18:47.560Z,30.87
2019-06-08T01:21:21.704Z,31.10
2019-06-08T01:23:57.587Z,31.93
2019-06-08T01:26:32.616Z,36.60
2019-06-08T01:29:05.620Z,32.13
2019-06-08T01:31:40.885Z,36.30
2019-06-08T01:34:13.731Z,33.77
2019-06-08T01:36:46.006Z,33.37
2019-06-08T01:39:18.734Z,31.45
2019-06-08T01:41:52.606Z,34.80
2019-06-08T01:44:28.068Z,35.43
2019-06-08T01:46:59.749Z,35.40
2019-06-08T01:49:32.667Z,35.10
2019-06-08T01:52:04.974Z,32.37
2019-06-08T01:54:36.708Z,32.67
2019-06-08T01:57:08.611Z,32.80
2019-06-08T01:59:41.593Z,33.85
2019-06-08T02:02:13.854Z,33.77
2019-06-08T02:04:47.015Z,34.17
2019-06-08T02:07:19.487Z,34.53
2019-06-08T02:09:56.874Z,35.23
2019-06-08T02:12:31.153Z,32.23
2019-06-08T02:15:03.074Z,33.23
2019-06-08T02:17:36.471Z,33.03
2019-06-08T02:20:11.385Z,33.17
2019-06-08T02:22:43.246Z,35.00
2019-06-08T02:25:17.674Z,34.93
2019-06-08T02:27:50.649Z,33.97
2019-06-08T02:30:23.479Z,34.00
2019-06-08T02:32:56.890Z,33.30
2019-06-08T02:35:30.675Z,33.63
2019-06-08T02:38:03.804Z,33.57
2019-06-08T02:40:36.879Z,34.47
2019-06-08T02:43:10.295Z,31.80
2019-06-08T02:45:43.273Z,32.03
2019-06-08T02:48:16.345Z,29.67
2019-06-08T02:50:55.586Z,32.23
2019-06-08T02:53:32.138Z,32.17
2019-06-08T02:56:06.790Z,31.70
2019-06-08T02:58:41.243Z,31.27
2019-06-08T03:01:17.089Z,30.37
2019-06-08T03:03:53.354Z,29.87
2019-06-08T03:06:30.145Z,29.60
2019-06-08T03:09:05.803Z,30.97
2019-06-08T03:11:39.358Z,30.93
2019-06-08T03:14:16.494Z,32.73
2019-06-08T03:16:50.742Z,34.00
2019-06-08T03:19:23.399Z,33.47
2019-06-08T03:21:57.038Z,31.83
2019-06-08T03:24:32.251Z,33.87
2019-06-08T03:27:06.753Z,33.93
2019-06-08T03:29:41.582Z,35.60
2019-06-08T03:32:15.764Z,35.65
2019-06-08T03:34:55.658Z,39.30
2019-06-08T03:37:23.082Z,35.57
2019-06-08T03:39:55.332Z,37.77
2019-06-08T03:42:27.797Z,37.33
2019-06-08T03:45:04.400Z,37.10
2019-06-08T03:47:39.654Z,34.67
2019-06-08T03:50:12.682Z,36.05
2019-06-08T03:52:46.254Z,35.20
2019-06-08T03:55:19.472Z,37.13
2019-06-08T03:57:52.001Z,38.40
2019-06-08T04:00:24.279Z,34.17
2019-06-08T04:03:01.251Z,36.27
2019-06-08T04:05:37.954Z,37.13
2019-06-08T04:08:12.735Z,35.23
2019-06-08T04:10:46.813Z,35.50
2019-06-08T04:13:24.806Z,34.45
2019-06-08T04:15:57.732Z,35.93
2019-06-08T04:18:31.442Z,34.60
2019-06-08T04:21:05.899Z,32.50
2019-06-08T04:23:40.473Z,32.47
2019-06-08T04:26:13.871Z,32.27
2019-06-08T04:28:47.937Z,31.27
2019-06-08T04:31:21.360Z,31.10
2019-06-08T04:33:54.782Z,29.17
2019-06-08T04:36:28.220Z,29.83
2019-06-08T04:39:04.167Z,29.27
2019-06-08T04:41:35.889Z,31.10
2019-06-08T04:44:08.648Z,28.73
2019-06-08T04:46:43.040Z,27.80
2019-06-08T04:49:16.268Z,28.57
2019-06-08T04:51:50.584Z,30.68
2019-06-08T04:54:23.908Z,27.87
2019-06-08T04:56:56.723Z,30.60
2019-06-08T04:59:32.807Z,27.63
2019-06-08T05:02:07.765Z,28.60
2019-06-08T05:04:41.014Z,31.40
2019-06-08T05:07:17.795Z,41.88
2019-06-08T05:09:51.056Z,28.47
2019-06-08T05:12:23.044Z,30.70
2019-06-08T05:14:55.019Z,31.07
2019-06-08T05:17:27.794Z,32.73
2019-06-08T05:20:01.024Z,32.03
2019-06-08T05:22:39.457Z,33.27
2019-06-08T05:25:12.966Z,31.70
2019-06-08T05:27:47.764Z,31.73
2019-06-08T05:30:22.320Z,31.70
2019-06-08T05:32:54.675Z,30.47
2019-06-08T05:35:29.113Z,30.57
2019-06-08T05:38:00.826Z,27.87
2019-06-08T05:40:39.535Z,24.53
2019-06-08T05:43:14.401Z,24.90
2019-06-08T05:45:48.485Z,24.40
2019-06-08T05:48:21.907Z,23.55
2019-06-08T05:51:03.644Z,24.77
2019-06-08T05:53:31.496Z,23.10
2019-06-08T05:56:04.249Z,21.80
2019-06-08T05:58:39.847Z,21.63
2019-06-08T06:01:13.941Z,21.10
2019-06-08T06:03:48.720Z,21.20
2019-06-08T06:06:21.452Z,22.83
2019-06-08T06:08:56.184Z,22.30
2019-06-08T06:11:29.952Z,23.20
2019-06-08T06:14:01.695Z,22.33
2019-06-08T06:16:34.200Z,28.77
2019-06-08T06:19:08.298Z,22.93
2019-06-08T06:21:41.036Z,25.20
2019-06-08T06:24:14.494Z,24.40
2019-06-08T06:26:47.383Z,22.97
2019-06-08T06:29:22.900Z,21.27
2019-06-08T06:31:56.587Z,20.23
2019-06-08T06:34:28.374Z,22.30
2019-06-08T06:37:02.639Z,20.90
2019-06-08T06:39:35.144Z,22.70
2019-06-08T06:42:08.193Z,18.77
2019-06-08T06:44:42.410Z,18.30
2019-06-08T06:47:17.979Z,17.97
2019-06-08T06:49:52.620Z,16.50
2019-06-08T06:52:27.750Z,16.90
2019-06-08T06:55:00.898Z,14.53
2019-06-08T06:57:36.520Z,14.77
2019-06-08T07:00:10.405Z,13.87
2019-06-08T07:02:47.615Z,15.17
2019-06-08T07:05:20.707Z,15.70
2019-06-08T07:07:56.138Z,14.60
2019-06-08T07:10:30.206Z,14.70
2019-06-08T07:13:03.002Z,14.47
2019-06-08T07:15:41.822Z,13.17
2019-06-08T07:18:17.404Z,12.30
2019-06-08T07:20:52.336Z,13.90
2019-06-08T07:23:24.967Z,14.03
2019-06-08T07:26:00.426Z,18.07
2019-06-08T07:28:33.024Z,13.93
2019-06-08T07:31:05.940Z,12.87
2019-06-08T07:33:40.910Z,14.40
2019-06-08T07:36:15.043Z,13.78
2019-06-08T07:38:49.884Z,12.20
2019-06-08T07:41:25.361Z,14.98
2019-06-08T07:44:00.007Z,11.13
2019-06-08T07:46:33.851Z,11.47
2019-06-08T07:49:07.847Z,10.65
2019-06-08T07:51:55.115Z,10.70
2019-06-08T07:54:18.432Z,14.40
2019-06-08T07:56:51.750Z,10.38
2019-06-08T07:59:25.297Z,12.03
2019-06-08T08:02:01.886Z,9.58
2019-06-08T08:04:37.077Z,9.10
2019-06-08T08:07:15.123Z,8.97
2019-06-08T08:09:48.632Z,9.65
2019-06-08T08:12:21.714Z,8.70
2019-06-08T08:14:57.851Z,7.75
2019-06-08T08:17:34.372Z,7.83
2019-06-08T08:20:07.987Z,8.77
2019-06-08T08:22:42.887Z,8.18
2019-06-08T08:25:18.213Z,7.17
2019-06-08T08:27:51.986Z,8.65
2019-06-08T08:30:24.940Z,7.50
2019-06-08T08:33:01.643Z,8.23
2019-06-08T08:35:30.764Z,7.58
2019-06-08T08:38:07.633Z,7.43
2019-06-08T08:40:39.503Z,6.90
2019-06-08T08:43:12.079Z,8.33
2019-06-08T08:45:47.644Z,7.15
2019-06-08T08:48:25.276Z,5.87
2019-06-08T08:50:54.157Z,6.72
2019-06-08T08:53:28.092Z,7.53
2019-06-08T08:56:03.334Z,7.57
2019-06-08T08:58:38.088Z,7.40
2019-06-08T09:01:10.885Z,7.22
2019-06-08T09:03:43.809Z,7.75
2019-06-08T09:06:18.243Z,6.67
2019-06-08T09:08:52.464Z,6.60
2019-06-08T09:11:28.865Z,7.40
2019-06-08T09:14:07.114Z,7.33
2019-06-08T09:16:39.926Z,7.22
2019-06-08T09:19:11.914Z,6.58
2019-06-08T09:21:48.063Z,6.97
2019-06-08T09:24:19.457Z,7.63
2019-06-08T09:26:56.037Z,8.65
2019-06-08T09:29:29.396Z,6.62
2019-06-08T09:32:03.771Z,7.28
2019-06-08T09:34:38.644Z,7.67
2019-06-08T09:37:12.879Z,7.80
2019-06-08T09:39:48.281Z,8.30
2019-06-08T09:42:22.613Z,9.13
2019-06-08T09:45:00.400Z,8.30
2019-06-08T09:47:33.172Z,7.90
2019-06-08T09:50:09.170Z,8.13
2019-06-08T09:52:43.544Z,8.10
2019-06-08T09:55:18.076Z,7.93
2019-06-08T09:57:55.104Z,7.12
2019-06-08T10:00:29.298Z,7.45
2019-06-08T10:03:05.141Z,8.05
2019-06-08T10:05:38.656Z,7.72
2019-06-08T10:08:10.847Z,8.73
2019-06-08T10:10:45.415Z,7.53
2019-06-08T10:13:18.948Z,7.83
2019-06-08T10:15:52.044Z,8.10
2019-06-08T10:18:25.038Z,7.62
2019-06-08T10:21:01.322Z,8.15
2019-06-08T10:23:34.870Z,6.87
2019-06-08T10:26:09.065Z,7.50
2019-06-08T10:28:42.194Z,7.70
2019-06-08T10:31:17.960Z,7.85
2019-06-08T10:33:50.982Z,7.65
2019-06-08T10:36:22.582Z,8.70
2019-06-08T10:39:01.851Z,8.05
2019-06-08T10:41:32.432Z,8.00
2019-06-08T10:44:05.502Z,8.53
2019-06-08T10:46:40.649Z,7.95
2019-06-08T10:49:14.858Z,8.07
2019-06-08T10:51:49.127Z,7.53
2019-06-08T10:54:24.228Z,7.43
2019-06-08T10:56:59.688Z,7.17
2019-06-08T10:59:36.699Z,7.20
2019-06-08T11:02:13.431Z,6.78
2019-06-08T11:04:44.697Z,8.38
2019-06-08T11:07:17.178Z,7.70
2019-06-08T11:09:51.131Z,7.92
2019-06-08T11:12:24.164Z,7.50
2019-06-08T11:14:58.435Z,8.53
2019-06-08T11:17:31.930Z,7.78
2019-06-08T11:20:07.415Z,7.55
2019-06-08T11:22:41.755Z,8.05
2019-06-08T11:25:19.870Z,8.07
2019-06-08T11:27:54.459Z,7.40
2019-06-08T11:30:30.232Z,6.72
2019-06-08T11:33:06.147Z,8.00
2019-06-08T11:35:43.966Z,7.45
2019-06-08T11:38:20.303Z,7.58
2019-06-08T11:40:54.161Z,7.00
2019-06-08T11:43:28.854Z,8.03
2019-06-08T11:46:02.508Z,6.80
2019-06-08T11:48:39.282Z,6.67
2019-06-08T11:51:13.549Z,7.55
2019-06-08T11:53:49.930Z,5.77
2019-06-08T11:56:21.893Z,6.40
2019-06-08T11:58:55.105Z,7.40
2019-06-08T12:01:29.913Z,6.45
2019-06-08T12:04:03.607Z,8.95
2019-06-08T12:06:40.038Z,7.33
2019-06-08T12:09:14.498Z,7.60
2019-06-08T12:11:51.081Z,9.03
2019-06-08T12:14:26.118Z,8.23
2019-06-08T12:17:01.285Z,7.80
2019-06-08T12:19:34.031Z,8.60
2019-06-08T12:22:11.565Z,8.70
2019-06-08T12:24:43.484Z,7.87
2019-06-08T12:27:28.895Z,7.80
2019-06-08T12:29:53.108Z,9.03
2019-06-08T12:32:27.733Z,7.72
2019-06-08T12:35:03.400Z,7.37
2019-06-08T12:37:38.717Z,8.10
2019-06-08T12:40:13.294Z,7.93
2019-06-08T12:42:46.128Z,7.20
2019-06-08T12:45:20.329Z,10.53
2019-06-08T12:47:53.620Z,7.10
2019-06-08T12:50:28.163Z,6.90
2019-06-08T12:53:11.228Z,7.08
2019-06-08T12:55:38.719Z,10.88
2019-06-08T12:58:11.663Z,6.97
2019-06-08T13:00:48.315Z,6.83
2019-06-08T13:03:24.307Z,7.53
2019-06-08T13:05:58.698Z,8.43
2019-06-08T13:08:31.252Z,7.35
2019-06-08T13:11:09.037Z,9.65
2019-06-08T13:13:43.268Z,8.78
2019-06-08T13:16:19.347Z,9.43
2019-06-08T13:18:50.881Z,8.90
2019-06-08T13:21:34.042Z,9.30
2019-06-08T13:23:59.700Z,9.30
2019-06-08T13:26:33.279Z,9.18
2019-06-08T13:29:09.292Z,8.13
2019-06-08T13:31:44.927Z,9.00
2019-06-08T13:34:23.519Z,8.80
2019-06-08T13:36:52.869Z,8.30
2019-06-08T13:39:28.010Z,8.23
2019-06-08T13:42:00.447Z,8.15
2019-06-08T13:44:32.596Z,9.30
2019-06-08T13:47:04.582Z,9.30
2019-06-08T13:49:39.390Z,9.23
2019-06-08T13:52:16.240Z,9.40
2019-06-08T13:54:54.315Z,8.75
2019-06-08T13:57:29.093Z,12.68
2019-06-08T14:00:01.101Z,8.75
2019-06-08T14:02:34.445Z,17.17
2019-06-08T14:05:11.553Z,12.73
2019-06-08T14:07:44.505Z,13.58
2019-06-08T14:10:22.500Z,14.45
2019-06-08T14:12:58.642Z,14.40
2019-06-08T14:15:32.581Z,15.55
2019-06-08T14:18:09.110Z,14.43
2019-06-08T14:20:43.784Z,16.13
2019-06-08T14:23:21.091Z,16.93
2019-06-08T14:25:56.861Z,16.77
2019-06-08T14:28:30.862Z,16.83
2019-06-08T14:31:04.542Z,16.27
2019-06-08T14:33:38.138Z,16.27
2019-06-08T14:36:14.583Z,16.48
2019-06-08T14:38:50.061Z,16.43
2019-06-08T14:41:24.606Z,16.43
2019-06-08T14:44:00.679Z,20.43
2019-06-08T14:46:33.883Z,15.57
2019-06-08T14:49:06.476Z,16.87
2019-06-08T14:51:50.434Z,16.67
2019-06-08T14:54:27.219Z,17.07
2019-06-08T14:56:59.793Z,19.75
2019-06-08T14:59:32.389Z,18.07
2019-06-08T15:02:07.861Z,17.02
2019-06-08T15:04:40.633Z,15.70
2019-06-08T15:07:13.257Z,13.40
2019-06-08T15:09:47.830Z,13.13
2019-06-08T15:12:23.485Z,13.20
2019-06-08T15:15:00.347Z,13.55
2019-06-08T15:17:33.881Z,12.98
2019-06-08T15:20:09.251Z,13.05
2019-06-08T15:22:42.418Z,13.72
2019-06-08T15:25:18.546Z,12.88
2019-06-08T15:27:54.322Z,13.05
2019-06-08T15:30:29.328Z,11.95
2019-06-08T15:33:00.576Z,13.27
2019-06-08T15:35:33.265Z,12.60
2019-06-08T15:38:05.470Z,12.35
2019-06-08T15:40:38.678Z,13.15
2019-06-08T15:43:12.390Z,12.17
2019-06-08T15:45:51.201Z,11.25
2019-06-08T15:48:22.112Z,11.57
2019-06-08T15:50:58.813Z,11.53
2019-06-08T15:53:34.065Z,10.60
2019-06-08T15:56:08.397Z,10.72
2019-06-08T15:58:42.935Z,13.08
2019-06-08T16:01:15.704Z,14.28
2019-06-08T16:03:50.166Z,7.05
2019-06-08T16:06:23.563Z,11.60
2019-06-08T16:08:56.106Z,10.38
2019-06-08T16:11:30.220Z,10.68
2019-06-08T16:14:02.851Z,9.40
2019-06-08T16:16:36.846Z,8.28
2019-06-08T16:19:12.338Z,14.18
2019-06-08T16:21:44.647Z,12.90
2019-06-08T16:24:18.173Z,9.20
2019-06-08T16:26:53.496Z,8.68
2019-06-08T16:29:28.833Z,13.13
2019-06-08T16:32:03.423Z,12.40
2019-06-08T16:34:36.280Z,5.10
2019-06-08T16:37:14.873Z,5.55
2019-06-08T16:39:49.125Z,6.40
2019-06-08T16:42:23.579Z,10.33
2019-06-08T16:44:57.126Z,5.97
2019-06-08T16:47:31.081Z,4.85
2019-06-08T16:50:05.692Z,5.13
2019-06-08T16:52:39.276Z,4.60
2019-06-08T16:55:12.399Z,7.33
2019-06-08T16:57:51.418Z,10.90
2019-06-08T17:00:37.185Z,9.07
2019-06-08T17:03:00.716Z,7.40
2019-06-08T17:05:33.408Z,7.58
2019-06-08T17:08:08.220Z,7.03
2019-06-08T17:10:42.318Z,5.17
2019-06-08T17:13:14.789Z,10.30
2019-06-08T17:15:49.897Z,11.07
2019-06-08T17:18:23.243Z,7.78
2019-06-08T17:20:56.674Z,9.43
2019-06-08T17:23:30.687Z,4.53
2019-06-08T17:26:03.417Z,4.43
2019-06-08T17:28:37.205Z,6.77
2019-06-08T17:31:09.025Z,4.20
2019-06-08T17:33:41.483Z,7.40
2019-06-08T17:36:16.998Z,9.53
2019-06-08T17:38:50.417Z,11.03
2019-06-08T17:41:25.186Z,4.03
2019-06-08T17:43:59.837Z,4.37
2019-06-08T17:46:36.468Z,6.60
2019-06-08T17:49:12.177Z,5.17
2019-06-08T17:51:46.354Z,6.63
2019-06-08T17:54:20.937Z,4.93
2019-06-08T17:56:55.523Z,5.73
2019-06-08T17:59:29.259Z,5.10
2019-06-08T18:02:08.069Z,8.03
2019-06-08T18:04:42.751Z,6.53
2019-06-08T18:07:18.033Z,7.35
2019-06-08T18:09:50.901Z,6.10
2019-06-08T18:12:26.984Z,7.10
2019-06-08T18:14:58.126Z,6.17
2019-06-08T18:17:30.542Z,4.80
2019-06-08T18:20:03.368Z,5.37
2019-06-08T18:22:39.118Z,6.53
2019-06-08T18:25:10.652Z,4.47
2019-06-08T18:27:58.438Z,5.17
2019-06-08T18:30:21.055Z,6.90
2019-06-08T18:32:55.300Z,5.00
2019-06-08T18:35:31.984Z,5.83
2019-06-08T18:38:07.603Z,5.77
2019-06-08T18:40:42.294Z,4.40
2019-06-08T18:43:17.047Z,5.67
2019-06-08T18:45:52.741Z,4.60
2019-06-08T18:48:28.323Z,4.40
2019-06-08T18:51:02.061Z,5.00
2019-06-08T18:53:49.100Z,4.60
2019-06-08T18:56:09.322Z,5.27
2019-06-08T18:58:43.843Z,5.57
2019-06-08T19:01:21.628Z,6.33
2019-06-08T19:03:52.927Z,4.77
2019-06-08T19:06:27.908Z,6.13
2019-06-08T19:09:01.817Z,5.30
2019-06-08T19:11:37.742Z,8.07
2019-06-08T19:14:12.823Z,7.13
2019-06-08T19:16:49.879Z,7.17
2019-06-08T19:19:22.304Z,6.50
2019-06-08T19:21:57.936Z,6.07
2019-06-08T19:24:30.834Z,5.73
2019-06-08T19:27:03.674Z,6.43
2019-06-08T19:29:41.790Z,5.43
2019-06-08T19:32:17.073Z,5.80
2019-06-08T19:34:53.865Z,5.23
2019-06-08T19:37:30.639Z,5.08
2019-06-08T19:40:07.454Z,6.67
2019-06-08T19:42:51.061Z,5.03
2019-06-08T19:45:18.185Z,5.13
2019-06-08T19:47:51.313Z,6.70
2019-06-08T19:50:23.992Z,5.10
2019-06-08T19:52:58.051Z,4.83
2019-06-08T19:55:32.300Z,5.13
2019-06-08T19:58:08.793Z,5.67
2019-06-08T20:00:42.284Z,5.50
2019-06-08T20:03:17.752Z,7.33
2019-06-08T20:05:54.555Z,5.87
2019-06-08T20:08:29.746Z,5.90
2019-06-08T20:11:03.355Z,6.13
2019-06-08T20:13:37.543Z,8.33
2019-06-08T20:16:12.073Z,8.47
2019-06-08T20:18:48.653Z,8.87
2019-06-08T20:21:23.752Z,7.10
2019-06-08T20:23:58.495Z,11.13
2019-06-08T20:26:34.054Z,9.67
2019-06-08T20:29:15.508Z,6.90
2019-06-08T20:31:41.303Z,6.57
2019-06-08T20:34:17.555Z,6.60
2019-06-08T20:36:50.716Z,6.27
2019-06-08T20:39:23.533Z,7.75
2019-06-08T20:41:58.538Z,8.47
2019-06-08T20:44:31.427Z,9.00
2019-06-08T20:47:03.816Z,6.70
2019-06-08T20:49:37.221Z,6.73
2019-06-08T20:52:12.145Z,7.53
2019-06-08T20:54:48.761Z,7.50
2019-06-08T20:57:23.029Z,7.85
2019-06-08T20:59:58.429Z,8.97
2019-06-08T21:02:31.622Z,8.45
2019-06-08T21:05:03.923Z,8.77
2019-06-08T21:07:37.705Z,8.50
2019-06-08T21:10:09.557Z,8.87
2019-06-08T21:12:42.361Z,7.03
2019-06-08T21:15:14.348Z,7.33
2019-06-08T21:17:50.663Z,6.30
2019-06-08T21:20:22.324Z,6.08
2019-06-08T21:22:59.859Z,5.57
2019-06-08T21:25:34.303Z,6.10
2019-06-08T21:28:07.948Z,6.73
2019-06-08T21:30:41.792Z,7.10
2019-06-08T21:33:14.623Z,5.58
2019-06-08T21:35:49.601Z,7.17
2019-06-08T21:38:24.082Z,5.45
2019-06-08T21:41:02.534Z,6.13
2019-06-08T21:43:34.309Z,6.67
2019-06-08T21:46:09.293Z,5.93
2019-06-08T21:48:42.563Z,6.07
2019-06-08T21:51:16.223Z,6.57
2019-06-08T21:53:51.114Z,6.70
2019-06-08T21:56:24.612Z,9.33
2019-06-08T21:59:00.902Z,6.20
2019-06-08T22:01:34.446Z,11.17
2019-06-08T22:04:07.818Z,10.23
2019-06-08T22:06:42.211Z,14.30
2019-06-08T22:09:14.550Z,18.45
2019-06-08T22:11:47.388Z,17.00
2019-06-08T22:14:24.080Z,11.20
2019-06-08T22:17:00.909Z,8.07
2019-06-08T22:19:31.600Z,8.20
2019-06-08T22:22:04.177Z,8.37
2019-06-08T22:24:38.293Z,8.57
2019-06-08T22:27:10.627Z,6.17
2019-06-08T22:29:45.153Z,5.83
2019-06-08T22:32:19.432Z,5.77
2019-06-08T22:34:53.084Z,5.77
2019-06-08T22:37:27.663Z,5.40
2019-06-08T22:40:01.782Z,7.03
2019-06-08T22:42:40.636Z,6.70
2019-06-08T22:45:17.533Z,4.87
2019-06-08T22:47:49.620Z,4.93
2019-06-08T22:50:24.234Z,4.53
2019-06-08T22:52:59.769Z,4.93
2019-06-08T22:55:32.686Z,5.30
2019-06-08T22:58:07.806Z,4.10
2019-06-08T23:00:52.322Z,5.27
2019-06-08T23:03:18.472Z,4.20
2019-06-08T23:05:51.253Z,4.33
2019-06-08T23:08:25.498Z,5.62
2019-06-08T23:10:59.362Z,5.30
2019-06-08T23:13:32.448Z,4.10
2019-06-08T23:16:08.832Z,9.33
2019-06-08T23:18:40.860Z,5.30
2019-06-08T23:21:13.768Z,4.87
2019-06-08T23:23:47.762Z,8.20
2019-06-08T23:26:20.721Z,4.80
2019-06-08T23:28:54.371Z,4.70
2019-06-08T23:31:29.237Z,4.50
2019-06-08T23:34:05.204Z,4.37
2019-06-08T23:36:51.655Z,4.57
2019-06-08T23:39:12.664Z,4.25
2019-06-08T23:41:48.294Z,3.90
2019-06-08T23:44:21.969Z,3.90
2019-06-08T23:46:59.753Z,3.83
2019-06-08T23:49:33.597Z,3.73
2019-06-08T23:52:10.472Z,3.93
2019-06-08T23:54:43.900Z,4.00
2019-06-08T23:57:18.021Z,5.27
2019-06-08T23:59:51.579Z,4.13
